createdAt,value
2022-09-28T00:00:55.166Z,16.60
2022-09-28T00:02:47.824Z,12.43
2022-09-28T00:04:39.667Z,13.05
2022-09-28T00:06:32.990Z,14.23
2022-09-28T00:08:23.545Z,17.05
2022-09-28T00:10:14.324Z,12.88
2022-09-28T00:12:08.036Z,12.68
2022-09-28T00:14:00.498Z,14.35
2022-09-28T00:15:59.673Z,13.95
2022-09-28T00:17:50.501Z,18.27
2022-09-28T00:19:42.522Z,11.00
2022-09-28T00:21:34.541Z,11.07
2022-09-28T00:23:25.338Z,15.52
2022-09-28T00:25:16.346Z,19.55
2022-09-28T00:27:06.916Z,27.20
2022-09-28T00:28:59.572Z,30.08
2022-09-28T00:30:55.222Z,36.63
2022-09-28T00:32:45.769Z,30.73
2022-09-28T00:34:38.358Z,29.30
2022-09-28T00:36:31.405Z,31.55
2022-09-28T00:38:22.024Z,28.85
2022-09-28T00:40:14.476Z,29.50
2022-09-28T00:42:13.314Z,23.17
2022-09-28T00:44:38.600Z,25.67
2022-09-28T00:46:32.608Z,23.15
2022-09-28T00:48:23.788Z,28.73
2022-09-28T00:50:18.629Z,28.77
2022-09-28T00:52:12.342Z,23.73
2022-09-28T00:54:06.091Z,27.70
2022-09-28T00:55:59.214Z,25.00
2022-09-28T00:57:53.239Z,25.92
2022-09-28T00:59:43.695Z,29.48
2022-09-28T01:01:34.721Z,40.78
2022-09-28T01:03:26.172Z,32.20
2022-09-28T01:05:17.398Z,27.27
2022-09-28T01:07:10.215Z,26.52
2022-09-28T01:09:04.153Z,19.58
2022-09-28T01:10:54.795Z,22.52
2022-09-28T01:12:45.342Z,19.65
2022-09-28T01:14:36.288Z,24.58
2022-09-28T01:16:39.672Z,19.55
2022-09-28T01:18:36.069Z,13.98
2022-09-28T01:20:34.151Z,18.17
2022-09-28T01:22:40.443Z,13.20
2022-09-28T01:24:39.676Z,14.93
2022-09-28T01:26:56.744Z,13.45
2022-09-28T01:28:49.868Z,10.63
2022-09-28T01:32:41.540Z,10.05
2022-09-28T01:34:37.349Z,7.93
2022-09-28T01:36:29.924Z,9.25
2022-09-28T01:38:22.864Z,12.55
2022-09-28T01:40:15.040Z,6.22
2022-09-28T01:42:10.642Z,9.85
2022-09-28T01:44:02.403Z,10.57
2022-09-28T01:45:55.715Z,9.15
2022-09-28T01:47:47.155Z,9.10
2022-09-28T01:49:45.211Z,11.95
2022-09-28T01:51:41.243Z,6.07
2022-09-28T01:53:36.039Z,3.90
2022-09-28T01:55:29.907Z,7.32
2022-09-28T01:57:25.882Z,2.47
2022-09-28T01:59:20.819Z,3.35
2022-09-28T02:01:15.629Z,7.20
2022-09-28T02:03:08.637Z,5.82
2022-09-28T02:05:03.314Z,6.07
2022-09-28T02:06:56.844Z,7.97
2022-09-28T02:08:50.322Z,5.97
2022-09-28T02:10:44.285Z,4.25
2022-09-28T02:12:37.502Z,5.65
2022-09-28T02:14:29.702Z,7.65
2022-09-28T02:16:22.946Z,6.97
2022-09-28T02:18:13.661Z,3.58
2022-09-28T02:20:04.899Z,7.20
2022-09-28T02:21:59.453Z,6.05
2022-09-28T02:23:54.237Z,8.65
2022-09-28T02:25:48.000Z,8.95
2022-09-28T02:27:42.814Z,4.30
2022-09-28T02:29:33.618Z,7.45
2022-09-28T02:31:24.387Z,3.83
2022-09-28T02:33:18.172Z,5.13
2022-09-28T02:35:14.876Z,3.58
2022-09-28T02:37:05.380Z,6.10
2022-09-28T02:38:56.973Z,7.63
2022-09-28T02:40:57.966Z,10.32
2022-09-28T02:42:59.139Z,5.30
2022-09-28T02:45:00.590Z,8.52
2022-09-28T02:46:55.905Z,5.55
2022-09-28T02:49:20.801Z,9.27
2022-09-28T02:51:20.586Z,5.25
2022-09-28T02:53:31.565Z,8.43
2022-09-28T02:55:34.326Z,5.38
2022-09-28T02:57:34.466Z,6.78
2022-09-28T02:59:38.861Z,8.15
2022-09-28T03:01:35.548Z,6.78
2022-09-28T03:03:31.293Z,5.30
2022-09-28T03:05:25.335Z,5.45
2022-09-28T03:07:21.966Z,4.95
2022-09-28T03:09:18.646Z,5.60
2022-09-28T03:11:14.191Z,10.25
2022-09-28T03:13:06.398Z,5.22
2022-09-28T03:15:14.198Z,10.00
2022-09-28T03:17:04.973Z,8.85
2022-09-28T03:18:56.469Z,6.47
2022-09-28T03:20:46.888Z,8.15
2022-09-28T03:22:37.572Z,7.25
2022-09-28T03:24:28.423Z,6.32
2022-09-28T03:26:21.459Z,10.82
2022-09-28T03:28:12.562Z,14.95
2022-09-28T03:30:03.953Z,10.40
2022-09-28T03:31:57.618Z,13.23
2022-09-28T03:33:48.108Z,7.68
2022-09-28T03:35:38.431Z,5.32
2022-09-28T03:37:29.020Z,8.45
2022-09-28T03:39:19.530Z,9.90
2022-09-28T03:41:09.999Z,10.55
2022-09-28T03:43:03.684Z,8.27
2022-09-28T03:44:54.460Z,10.25
2022-09-28T03:46:46.539Z,9.18
2022-09-28T03:48:40.330Z,7.25
2022-09-28T03:50:30.831Z,10.57
2022-09-28T03:52:21.525Z,9.40
2022-09-28T03:54:11.894Z,14.13
2022-09-28T03:56:03.650Z,7.55
2022-09-28T03:57:54.277Z,9.70
2022-09-28T03:59:45.486Z,5.95
2022-09-28T04:01:36.465Z,7.78
2022-09-28T04:03:27.333Z,13.23
2022-09-28T04:05:19.671Z,13.07
2022-09-28T04:07:10.201Z,11.43
2022-09-28T04:09:00.965Z,8.85
2022-09-28T04:10:51.902Z,9.90
2022-09-28T04:12:42.798Z,13.20
2022-09-28T04:14:33.682Z,8.82
2022-09-28T04:16:24.456Z,7.10
2022-09-28T04:18:16.291Z,6.13
2022-09-28T04:20:09.788Z,5.70
2022-09-28T04:22:04.183Z,6.00
2022-09-28T04:23:54.646Z,6.70
2022-09-28T04:25:51.627Z,7.47
2022-09-28T04:27:42.197Z,11.85
2022-09-28T04:29:36.147Z,5.80
2022-09-28T04:31:27.231Z,3.00
2022-09-28T04:33:19.218Z,7.82
2022-09-28T04:35:10.528Z,6.57
2022-09-28T04:37:06.273Z,5.30
2022-09-28T04:38:56.631Z,4.05
2022-09-28T04:40:49.155Z,4.82
2022-09-28T04:42:39.994Z,5.25
2022-09-28T04:44:32.998Z,15.00
2022-09-28T04:46:23.682Z,10.23
2022-09-28T04:48:16.704Z,7.43
2022-09-28T04:50:07.923Z,4.05
2022-09-28T04:51:59.085Z,9.52
2022-09-28T04:53:51.256Z,8.07
